TimeEDT,TemperatureF,Dew PointF,Humidity,Sea Level PressureIn,VisibilityMPH,Wind Direction,Wind SpeedMPH,Gust SpeedMPH,PrecipitationIn,Events,Conditions,WindDirDegrees,DateUTC
12:15 AM,21.7,18.5,87,29.69,1.8,Calm,Calm,-,N/A,Snow,Light Snow,0,2013-03-20 04:15:00
12:35 AM,21.6,18.3,87,29.68,1.5,Calm,Calm,-,N/A,Snow,Light Snow,0,2013-03-20 04:35:00
12:55 AM,21.6,18.3,87,29.67,1.2,Calm,Calm,-,N/A,Snow,Snow,0,2013-03-20 04:55:00
1:35 AM,21.6,18.5,88,29.67,1.0,Calm,Calm,-,N/A,Snow,Snow,0,2013-03-20 05:35:00
1:55 AM,21.2,18.5,89,29.66,1.2,Calm,Calm,-,N/A,Snow,Light Snow,0,2013-03-20 05:55:00
2:15 AM,21.2,18.3,89,29.66,1.2,Calm,Calm,-,N/A,Snow,Light Snow,0,2013-03-20 06:15:00
2:35 AM,21.2,18.3,89,29.65,1.8,Calm,Calm,-,N/A,Snow,Light Snow,0,2013-03-20 06:35:00
2:55 AM,21.2,18.3,89,29.64,2.0,Calm,Calm,-,N/A,Snow,Light Snow,0,2013-03-20 06:55:00
3:15 AM,21.2,18.1,88,29.63,4.0,Calm,Calm,-,N/A,Snow,Light Snow,0,2013-03-20 07:15:00
3:35 AM,20.7,17.6,88,29.63,3.0,Calm,Calm,-,N/A,Snow,Light Snow,0,2013-03-20 07:35:00
3:55 AM,21.0,18.1,89,29.63,2.0,Calm,Calm,-,N/A,Snow,Light Snow,0,2013-03-20 07:55:00
4:15 AM,20.8,18.1,89,29.63,2.0,Calm,Calm,-,N/A,Snow,Light Snow,0,2013-03-20 08:15:00
4:35 AM,21.2,18.5,89,29.62,1.8,Calm,Calm,-,N/A,Snow,Light Snow,0,2013-03-20 08:35:00
4:55 AM,20.3,17.2,88,29.62,1.8,Calm,Calm,-,N/A,Snow,Light Snow,0,2013-03-20 08:55:00
5:15 AM,20.7,17.8,89,29.62,2.5,Calm,Calm,-,N/A,Snow,Light Snow,0,2013-03-20 09:15:00
5:35 AM,20.5,17.6,89,29.62,3.0,Calm,Calm,-,N/A,Snow,Light Snow,0,2013-03-20 09:35:00
5:55 AM,20.1,17.1,88,29.62,5.0,Calm,Calm,-,N/A,Snow,Light Snow,0,2013-03-20 09:55:00
6:15 AM,20.7,17.6,88,29.62,5.0,Calm,Calm,-,N/A,Snow,Light Snow,0,2013-03-20 10:15:00
6:35 AM,21.4,18.7,89,29.62,5.0,SW,3.5,-,N/A,,Overcast,230,2013-03-20 10:35:00
6:55 AM,22.6,18.7,85,29.62,7.0,West,4.6,-,N/A,Snow,Light Snow,260,2013-03-20 10:55:00
7:15 AM,22.8,18.1,82,29.62,7.0,WSW,3.5,-,N/A,Snow,Light Snow,240,2013-03-20 11:15:00
7:35 AM,23.0,18.1,82,29.62,7.0,WSW,6.9,-,N/A,Snow,Light Snow,250,2013-03-20 11:35:00
7:55 AM,23.7,18.1,79,29.62,7.0,West,8.1,-,N/A,,Overcast,260,2013-03-20 11:55:00
8:15 AM,23.9,18.1,79,29.62,5.0,West,10.4,-,N/A,,Haze,260,2013-03-20 12:15:00
8:35 AM,23.9,17.8,77,29.63,7.0,West,9.2,-,N/A,,Overcast,260,2013-03-20 12:35:00
8:55 AM,23.9,17.6,77,29.62,7.0,West,9.2,-,N/A,Snow,Light Snow,270,2013-03-20 12:55:00
9:15 AM,23.9,17.4,76,29.63,5.0,West,6.9,20.7,N/A,Snow,Light Snow,260,2013-03-20 13:15:00
9:35 AM,24.3,16.7,73,29.63,7.0,West,15.0,19.6,N/A,,Overcast,270,2013-03-20 13:35:00
9:55 AM,24.4,16.2,71,29.63,10.0,West,9.2,17.3,N/A,,Overcast,280,2013-03-20 13:55:00
10:15 AM,24.8,16.2,70,29.63,10.0,WNW,13.8,17.3,N/A,,Overcast,290,2013-03-20 14:15:00
10:35 AM,25.3,16.5,69,29.63,7.0,West,8.1,-,N/A,Snow,Light Snow,270,2013-03-20 14:35:00
10:55 AM,25.3,16.0,68,29.63,7.0,West,8.1,-,N/A,Snow,Light Snow,270,2013-03-20 14:55:00
11:15 AM,25.2,16.2,69,29.63,4.0,West,15.0,23.0,N/A,Snow,Light Snow,270,2013-03-20 15:15:00
11:35 AM,25.9,16.3,67,29.63,5.0,West,10.4,20.7,N/A,Snow,Light Snow,260,2013-03-20 15:35:00
11:55 AM,26.6,15.8,64,29.63,10.0,West,11.5,20.7,N/A,,Mostly Cloudy,280,2013-03-20 15:55:00
12:15 PM,26.6,14.9,61,29.62,10.0,West,12.7,17.3,N/A,,Mostly Cloudy,280,2013-03-20 16:15:00
12:35 PM,28.4,14.7,57,29.62,10.0,West,11.5,19.6,N/A,,Overcast,270,2013-03-20 16:35:00
12:55 PM,27.5,15.1,60,29.62,10.0,West,13.8,21.9,N/A,,Overcast,260,2013-03-20 16:55:00
1:15 PM,28.4,15.8,59,29.62,10.0,West,12.7,23.0,N/A,,Overcast,270,2013-03-20 17:15:00
1:35 PM,28.9,15.6,58,29.62,10.0,West,10.4,20.7,N/A,,Mostly Cloudy,280,2013-03-20 17:35:00
1:55 PM,29.1,14.5,55,29.61,10.0,West,12.7,18.4,N/A,,Overcast,270,2013-03-20 17:55:00
2:15 PM,28.9,15.3,57,29.61,10.0,West,9.2,18.4,N/A,,Overcast,270,2013-03-20 18:15:00
2:35 PM,30.2,16.3,56,29.61,10.0,West,6.9,-,N/A,,Overcast,280,2013-03-20 18:35:00
2:55 PM,31.5,15.4,52,29.60,10.0,West,13.8,23.0,N/A,,Overcast,260,2013-03-20 18:55:00
3:15 PM,31.3,15.3,52,29.60,10.0,West,12.7,19.6,N/A,,Mostly Cloudy,260,2013-03-20 19:15:00
3:35 PM,30.7,15.8,54,29.60,10.0,WSW,10.4,-,N/A,,Mostly Cloudy,250,2013-03-20 19:35:00
3:55 PM,30.6,18.1,60,29.60,10.0,WSW,11.5,16.1,N/A,,Overcast,250,2013-03-20 19:55:00
4:15 PM,30.2,20.3,67,29.60,5.0,WSW,5.8,-,N/A,Snow,Light Snow,240,2013-03-20 20:15:00
4:35 PM,29.7,19.2,65,29.60,10.0,WSW,9.2,-,N/A,,Mostly Cloudy,240,2013-03-20 20:35:00
4:55 PM,29.1,21.7,74,29.60,1.8,West,6.9,-,N/A,Snow,Light Snow,260,2013-03-20 20:55:00
5:15 PM,28.9,21.6,74,29.61,4.0,West,4.6,-,N/A,Snow,Light Snow,260,2013-03-20 21:15:00
5:35 PM,28.4,22.8,80,29.61,1.5,West,6.9,-,N/A,Snow,Light Snow,270,2013-03-20 21:35:00
5:55 PM,28.0,23.9,84,29.62,0.5,WNW,5.8,-,N/A,Snow,Snow,290,2013-03-20 21:55:00
6:15 PM,27.5,24.1,87,29.62,0.8,West,3.5,-,N/A,Snow,Light Snow,270,2013-03-20 22:15:00
6:35 PM,27.5,23.5,85,29.62,10.0,West,6.9,-,N/A,,Mostly Cloudy,280,2013-03-20 22:35:00
6:55 PM,27.9,21.6,77,29.63,7.0,West,6.9,-,N/A,Snow,Light Snow,260,2013-03-20 22:55:00
7:15 PM,27.5,22.1,80,29.64,5.0,WSW,4.6,-,N/A,Snow,Light Snow,240,2013-03-20 23:15:00
7:35 PM,27.1,22.8,84,29.64,5.0,West,3.5,-,N/A,Snow,Light Snow,260,2013-03-20 23:35:00
7:55 PM,27.1,22.6,83,29.64,5.0,West,5.8,-,N/A,Snow,Light Snow,280,2013-03-20 23:55:00
8:15 PM,27.3,21.9,80,29.64,10.0,SW,4.6,-,N/A,,Overcast,220,2013-03-21 00:15:00
8:35 PM,27.1,23.0,84,29.65,1.5,SW,5.8,-,N/A,Snow,Snow,230,2013-03-21 00:35:00
8:55 PM,27.0,23.7,88,29.66,1.5,SW,5.8,-,N/A,Snow,Light Snow,230,2013-03-21 00:55:00
9:15 PM,27.1,22.6,83,29.65,7.0,SW,4.6,-,N/A,Snow,Light Snow,230,2013-03-21 01:15:00
9:35 PM,26.6,20.8,79,29.65,10.0,WSW,8.1,-,N/A,Snow,Light Snow,240,2013-03-21 01:35:00
9:55 PM,26.2,18.9,74,29.65,10.0,SW,4.6,-,N/A,,Mostly Cloudy,220,2013-03-21 01:55:00
10:15 PM,26.2,17.2,69,29.65,10.0,WSW,3.5,-,N/A,,Scattered Clouds,240,2013-03-21 02:15:00
10:35 PM,25.7,16.2,67,29.65,10.0,WSW,11.5,16.1,N/A,,Clear,240,2013-03-21 02:35:00
10:55 PM,25.0,15.6,68,29.66,10.0,SW,4.6,-,N/A,,Clear,220,2013-03-21 02:55:00
11:15 PM,24.6,15.1,67,29.65,10.0,SW,4.6,-,N/A,,Clear,220,2013-03-21 03:15:00
11:35 PM,24.3,14.5,67,29.65,10.0,WSW,3.5,-,N/A,,Clear,250,2013-03-21 03:35:00
11:55 PM,24.1,14.4,66,29.65,10.0,SW,5.8,-,N/A,,Clear,230,2013-03-21 03:55:00